Portada
METAR-TAF:

METAR-TAF

Aeroports :

Maple Lake Municipal Airport

Maple Lake, Minnesota, Estats Units d'Amèrica

latitud: 45-14-10N, longitud: 093-59-08W, altitud: 313 m

Observació

L'informe es va fer fa 15 minuts, a les 12:55 UTC
Vent 5 kt del Nord/Nord-Est
Temperatura 20°C
Humitat 78%
Pressió 1014 hPa
Visibilitat: 16.1 km
Núvols disperses a una alçada de 9000 ft
Cel ennuvolat a una alçada de 11000 ft

METAR: KMGG 201255Z AUTO 02005KT 10SM SCT090 BKN110 20/16 A2995 RMK AO2 T01990158

Hora: 08:10 (13:10 UTC)


TAF: manca

Observacions i pronòstics meteorològics de més de 4000 aeroports (METAR i TAF).

Les estacions disponibles són els punts grocs i vermells al mapa.

Posi el ratolí al punt desitjat per veure el nom de l'estació.

Feu clic per veure les observacions i els pronòstics meteorològics.

Per canviar el mapa: feu clic els botons verds amb una creu de color negre per apropar; al botó verd amb un guió per allunyar la imatge; o en les fletxes verdes per a mapes adjacents.


METAR-TAF: